Time;durP1;ratioP1;P1;durP2;ratioP2;P2;SDS_P1;SDS_P2;PMS_P1;PMS_P2;Temp;Humidity;BMP_temperature;BMP_pressure;BME280_temperature;BME280_humidity;BME280_pressure;Samples;Min_cycle;Max_cycle;Signal;HPM_P1;HPM_P2
2021/11/26 00:00:58;;;;;;;40.33;30.43;;;;;;;3.71;73.76;101388.34;2088806;28;20179;-66
2021/11/26 00:01:59;;;;;;;38.60;31.67;;;;;;;3.74;74.15;101395.81;2089071;28;20187;-66
2021/11/26 00:03:00;;;;;;;41.50;31.83;;;;;;;3.76;73.69;101393.50;2089040;28;20193;-66
2021/11/26 00:04:01;;;;;;;45.87;33.70;;;;;;;3.81;73.88;101400.63;2089066;28;20180;-66
2021/11/26 00:05:03;;;;;;;48.90;34.00;;;;;;;3.83;74.27;101401.03;2089072;28;20187;-66
2021/11/26 00:06:05;;;;;;;36.70;28.35;;;;;;;3.61;73.70;101363.47;2089261;28;20268;-66
2021/11/26 00:07:05;;;;;;;36.55;27.15;;;;;;;3.84;73.16;101394.41;2087737;28;20659;-66
2021/11/26 00:08:06;;;;;;;37.53;27.70;;;;;;;3.85;72.75;101399.50;2088174;28;20617;-66
2021/11/26 00:09:06;;;;;;;37.20;27.23;;;;;;;3.86;72.64;101397.56;2089032;28;20635;-66
2021/11/26 00:10:07;;;;;;;37.73;27.83;;;;;;;3.85;71.95;101407.72;2089016;28;20694;-66
2021/11/26 00:11:07;;;;;;;35.93;27.77;;;;;;;3.87;71.61;101391.72;2088991;28;20623;-66
2021/11/26 00:12:08;;;;;;;36.80;28.40;;;;;;;3.75;71.51;101369.97;2089405;28;20419;-66
2021/11/26 00:13:11;;;;;;;39.37;28.13;;;;;;;3.87;70.89;101390.91;2088945;28;20254;-66
2021/11/26 00:14:24;;;;;;;36.03;27.52;;;;;;;3.87;71.01;101390.91;2089258;28;20174;-66
2021/11/26 00:16:34;;;;;;;35.65;26.35;;;;;;;3.85;70.12;101396.75;2088728;28;20183;-66
2021/11/26 00:17:38;;;;;;;31.45;25.60;;;;;;;3.70;69.93;101383.22;2088897;28;20165;-66
2021/11/26 00:18:43;;;;;;;34.38;26.25;;;;;;;3.80;70.07;101390.81;2088642;28;20636;-66
2021/11/26 00:19:45;;;;;;;41.17;32.55;;;;;;;3.78;70.75;101384.88;2088799;28;20662;-66
2021/11/26 00:20:48;;;;;;;45.80;33.40;;;;;;;3.80;71.38;101380.63;2089191;28;20174;-66
2021/11/26 00:21:48;;;;;;;46.80;36.28;;;;;;;3.75;71.83;101378.19;2088836;28;20186;-66
2021/11/26 00:22:49;;;;;;;44.33;35.43;;;;;;;3.78;71.84;101382.16;2089167;28;20166;-66
2021/11/26 00:23:50;;;;;;;45.35;34.15;;;;;;;2.53;71.44;101196.19;2088948;28;20403;-66
2021/11/26 00:24:53;;;;;;;49.03;37.07;;;;;;;2.44;71.13;101183.91;2089033;28;20200;-66
2021/11/26 00:25:53;;;;;;;51.35;38.78;;;;;;;3.71;72.00;101385.59;2088962;28;20179;-66
2021/11/26 00:26:54;;;;;;;54.10;37.67;;;;;;;3.70;72.19;101381.25;2088452;28;20172;-66
2021/11/26 00:27:55;;;;;;;52.57;38.93;;;;;;;3.44;72.11;101348.31;2088374;28;20685;-66
2021/11/26 00:28:55;;;;;;;48.97;38.33;;;;;;;3.66;72.10;101372.19;2089018;28;20171;-66
2021/11/26 00:29:56;;;;;;;60.53;40.70;;;;;;;3.65;72.12;101373.31;2088891;28;20895;-66
2021/11/26 00:30:56;;;;;;;52.77;41.37;;;;;;;3.63;72.60;101367.44;2089002;28;20159;-66
2021/11/26 00:31:57;;;;;;;49.97;38.93;;;;;;;3.65;72.28;101364.34;2088779;28;20626;-66
2021/11/26 00:32:58;;;;;;;49.77;35.43;;;;;;;3.59;71.95;101363.84;2089046;28;20252;-66
2021/11/26 00:33:59;;;;;;;46.43;35.30;;;;;;;3.63;72.20;101369.38;2089048;28;20258;-66
2021/11/26 00:34:59;;;;;;;46.05;33.88;;;;;;;3.61;72.50;101374.44;2089038;28;20661;-66
2021/11/26 00:36:00;;;;;;;43.77;33.77;;;;;;;3.64;72.62;101374.50;2088940;28;20586;-66
2021/11/26 00:37:00;;;;;;;41.07;30.90;;;;;;;3.62;73.04;101368.59;2088282;28;20675;-66
2021/11/26 00:38:03;;;;;;;41.00;30.43;;;;;;;3.55;73.04;101360.25;2087691;28;20196;-66
2021/11/26 00:39:05;;;;;;;38.33;29.63;;;;;;;3.60;72.93;101376.38;2088246;28;20706;-66
2021/11/26 00:40:07;;;;;;;41.80;30.38;;;;;;;3.55;73.42;101370.44;2088567;28;20642;-66
2021/11/26 00:41:07;;;;;;;39.67;29.17;;;;;;;3.50;73.50;101370.75;2079816;28;20252;-67
2021/11/26 00:42:08;;;;;;;37.20;27.90;;;;;;;3.45;73.73;101369.09;2079801;28;20264;-66
2021/11/26 00:43:09;;;;;;;40.90;28.97;;;;;;;3.39;73.67;101367.81;2079884;28;20193;-66
2021/11/26 00:44:10;;;;;;;36.57;27.93;;;;;;;3.41;73.82;101361.97;2080190;28;20180;-66
2021/11/26 00:45:15;;;;;;;38.43;29.40;;;;;;;3.42;73.82;101369.84;2080631;28;20185;-66
2021/11/26 00:46:16;;;;;;;36.28;28.88;;;;;;;3.25;73.20;101355.84;2080269;28;20178;-66
2021/11/26 00:47:16;;;;;;;36.15;27.70;;;;;;;3.44;73.15;101369.47;2080367;28;20195;-66
2021/11/26 00:48:17;;;;;;;37.13;27.93;;;;;;;3.43;72.61;101376.09;2080250;28;20181;-66
2021/11/26 00:49:17;;;;;;;35.60;27.20;;;;;;;3.45;72.36;101376.53;2080518;28;20269;-66
2021/11/26 00:50:18;;;;;;;36.60;27.40;;;;;;;3.34;72.69;101357.16;2080536;28;20185;-66
2021/11/26 00:51:19;;;;;;;37.23;26.47;;;;;;;3.40;72.61;101365.88;2081239;28;20185;-66
2021/11/26 00:52:19;;;;;;;34.83;26.97;;;;;;;2.66;72.63;101263.25;2088977;28;20180;-66
2021/11/26 00:53:20;;;;;;;35.33;27.50;;;;;;;3.49;72.20;101369.94;2088628;28;20191;-66
2021/11/26 00:54:20;;;;;;;35.20;27.07;;;;;;;3.48;71.57;101376.59;2089033;28;20265;-66
2021/11/26 00:55:21;;;;;;;39.37;29.60;;;;;;;2.92;71.99;101287.19;2088581;28;20547;-66
2021/11/26 00:56:21;;;;;;;34.77;27.57;;;;;;;3.51;71.82;101366.84;2088495;28;20206;-66
2021/11/26 00:57:22;;;;;;;33.03;25.63;;;;;;;3.48;71.82;101370.31;2087889;28;20184;-65
2021/11/26 00:58:22;;;;;;;36.77;29.73;;;;;;;3.50;71.65;101371.50;2087866;28;20277;-66
2021/11/26 00:59:23;;;;;;;36.57;28.37;;;;;;;3.49;71.41;101377.38;2088729;28;20172;-66
2021/11/26 01:00:24;;;;;;;35.63;26.53;;;;;;;2.45;70.97;101219.09;2088721;28;20280;-66
2021/11/26 01:01:24;;;;;;;36.00;27.33;;;;;;;3.47;70.71;101372.25;2088745;28;20164;-66
2021/11/26 01:02:24;;;;;;;35.57;26.83;;;;;;;3.47;70.02;101374.19;2088794;28;20616;-66
2021/11/26 01:03:25;;;;;;;35.93;27.63;;;;;;;3.35;69.84;101360.69;2088686;28;20552;-66
2021/11/26 01:04:26;;;;;;;37.80;28.97;;;;;;;3.41;69.64;101368.25;2088894;28;20498;-66
2021/11/26 01:05:26;;;;;;;35.83;27.33;;;;;;;2.81;69.45;101283.47;2088622;28;20176;-66
2021/11/26 01:06:27;;;;;;;39.80;27.87;;;;;;;3.39;69.55;101372.50;2088402;28;20188;-65
2021/11/26 01:07:28;;;;;;;40.73;27.00;;;;;;;3.38;69.91;101368.97;2088457;28;20184;-66
2021/11/26 01:08:28;;;;;;;37.20;27.10;;;;;;;3.38;69.57;101359.97;2088446;28;20178;-66
2021/11/26 01:09:29;;;;;;;37.10;26.20;;;;;;;3.36;69.70;101363.09;2088636;28;20181;-66
2021/11/26 01:10:30;;;;;;;36.20;25.30;;;;;;;3.35;69.94;101366.19;2088635;28;20328;-67
2021/11/26 01:11:30;;;;;;;32.42;25.05;;;;;;;3.34;69.91;101356.38;2088645;28;20187;-66
2021/11/26 01:12:31;;;;;;;33.00;26.03;;;;;;;3.31;69.07;101360.66;2088788;28;20185;-66
2021/11/26 01:13:32;;;;;;;35.90;25.77;;;;;;;3.29;68.94;101356.69;2088584;28;20174;-66
2021/11/26 01:14:32;;;;;;;31.43;24.83;;;;;;;3.11;69.10;101331.72;2088914;28;20226;-66
2021/11/26 01:15:34;;;;;;;31.73;23.70;;;;;;;2.15;69.84;101170.84;2088518;28;20200;-66
2021/11/26 01:16:34;;;;;;;31.88;24.15;;;;;;;3.22;70.71;101340.13;2088247;28;20184;-66
2021/11/26 01:17:37;;;;;;;30.97;23.70;;;;;;;3.17;71.53;101329.47;2088594;28;20179;-66
2021/11/26 01:18:37;;;;;;;35.40;27.02;;;;;;;3.16;70.70;101338.84;2088258;28;20202;-65
2021/11/26 01:19:38;;;;;;;31.87;25.57;;;;;;;3.16;70.54;101334.16;2088803;28;20704;-66
2021/11/26 01:20:39;;;;;;;36.10;26.03;;;;;;;3.15;70.37;101338.06;2088707;28;20169;-66
2021/11/26 01:21:39;;;;;;;35.72;26.95;;;;;;;3.14;69.89;101341.16;2088507;28;20180;-66
2021/11/26 01:22:40;;;;;;;34.97;26.73;;;;;;;3.12;69.64;101333.31;2089023;28;20181;-66
2021/11/26 01:23:41;;;;;;;33.50;25.60;;;;;;;3.02;69.93;101320.22;2088736;28;20729;-66
2021/11/26 01:24:42;;;;;;;37.20;27.33;;;;;;;2.41;69.62;101239.34;2088861;28;20622;-66
2021/11/26 01:25:42;;;;;;;34.50;27.63;;;;;;;3.00;69.48;101329.94;2088721;28;20594;-66
2021/11/26 01:26:43;;;;;;;33.63;25.60;;;;;;;2.99;70.62;101320.16;2088135;28;20172;-66
2021/11/26 01:27:44;;;;;;;34.77;25.47;;;;;;;3.00;71.19;101319.00;2088655;28;20578;-66
2021/11/26 01:28:47;;;;;;;33.77;25.60;;;;;;;2.40;70.91;101232.28;2088093;28;20185;-66
2021/11/26 01:29:47;;;;;;;33.88;26.60;;;;;;;3.00;70.91;101322.53;2088695;28;20415;-65
2021/11/26 01:30:49;;;;;;;33.93;25.20;;;;;;;3.02;70.44;101322.16;2088469;28;20183;-66
2021/11/26 01:31:50;;;;;;;36.20;26.95;;;;;;;3.02;70.39;101312.00;2088691;28;20617;-66
2021/11/26 01:32:55;;;;;;;36.50;26.90;;;;;;;2.43;70.34;101223.34;2088576;28;20208;-66
2021/11/26 01:33:55;;;;;;;36.88;28.33;;;;;;;2.97;70.52;101300.59;2088848;28;20638;-66
2021/11/26 01:34:56;;;;;;;42.23;30.17;;;;;;;2.95;71.49;101298.22;2088570;28;20669;-66
2021/11/26 01:35:57;;;;;;;41.07;29.60;;;;;;;2.40;71.95;101205.72;2088618;28;20199;-66
2021/11/26 01:36:57;;;;;;;40.70;29.77;;;;;;;2.12;72.10;101169.66;2087841;28;20184;-66
2021/11/26 01:37:59;;;;;;;43.67;32.03;;;;;;;2.96;72.87;101310.72;2088496;28;20165;-66
2021/11/26 01:38:59;;;;;;;43.17;30.40;;;;;;;2.75;73.02;101265.75;2088461;28;20238;-66
2021/11/26 01:40:00;;;;;;;37.80;28.77;;;;;;;2.94;73.29;101293.91;2088775;28;20173;-66
2021/11/26 01:41:01;;;;;;;35.20;26.83;;;;;;;2.93;72.99;101327.09;2080604;28;20219;-66
2021/11/26 01:42:01;;;;;;;34.13;25.00;;;;;;;1.85;72.92;101126.97;2083306;28;20180;-66
2021/11/26 01:43:03;;;;;;;34.90;26.77;;;;;;;2.88;72.71;101291.81;2088441;28;20455;-66
2021/11/26 01:44:04;;;;;;;37.67;27.80;;;;;;;2.85;73.06;101295.25;2088692;28;20193;-66
2021/11/26 01:45:06;;;;;;;35.63;27.30;;;;;;;2.85;72.91;101285.13;2088565;28;20186;-66
2021/11/26 01:46:08;;;;;;;34.88;26.67;;;;;;;1.86;72.15;101130.50;2088022;28;20172;-66
2021/11/26 01:47:13;;;;;;;37.78;28.02;;;;;;;2.74;72.31;101267.72;2087399;28;20255;-66
2021/11/26 01:48:15;;;;;;;41.55;29.10;;;;;;;2.88;72.01;101283.59;2088478;28;20750;-66
2021/11/26 01:49:16;;;;;;;36.13;27.67;;;;;;;2.89;71.76;101290.66;2088448;28;20602;-66
2021/11/26 01:50:18;;;;;;;35.17;27.03;;;;;;;2.90;71.81;101289.50;2088713;28;20250;-66
2021/11/26 01:51:19;;;;;;;37.13;28.52;;;;;;;2.78;71.97;101267.78;2088162;28;20704;-66
2021/11/26 01:52:19;;;;;;;33.57;26.50;;;;;;;2.93;71.07;101286.03;2088701;28;20563;-66
2021/11/26 01:53:20;;;;;;;34.13;26.67;;;;;;;2.87;70.72;101282.78;2088443;28;20259;-66
2021/11/26 01:54:20;;;;;;;33.60;25.90;;;;;;;2.95;70.93;101289.19;2090088;28;20172;-66
2021/11/26 01:55:21;;;;;;;35.77;25.87;;;;;;;2.94;70.86;101282.13;2089860;28;20247;-65
2021/11/26 01:56:24;;;;;;;33.63;24.27;;;;;;;2.94;71.17;101291.16;2089792;28;20178;-66
2021/11/26 01:57:25;;;;;;;31.30;22.85;;;;;;;2.95;71.28;101278.25;2089796;28;20249;-66
2021/11/26 01:58:26;;;;;;;31.55;23.42;;;;;;;2.96;72.36;101272.41;2089715;28;20263;-66
2021/11/26 01:59:27;;;;;;;32.40;23.10;;;;;;;2.96;72.27;101271.59;2090005;28;20702;-66
2021/11/26 02:00:31;;;;;;;29.30;21.83;;;;;;;2.93;72.76;101262.16;2090235;28;20744;-66
2021/11/26 02:01:32;;;;;;;35.33;23.85;;;;;;;2.92;72.23;101252.38;2089679;28;20183;-66
2021/11/26 02:02:32;;;;;;;36.00;25.63;;;;;;;2.93;72.50;101251.22;2090114;28;20171;-65
2021/11/26 02:03:33;;;;;;;44.20;25.20;;;;;;;2.96;72.02;101241.47;2089887;28;20415;-66
2021/11/26 02:04:33;;;;;;;41.33;25.77;;;;;;;2.94;71.75;101249.28;2090095;28;20266;-66
2021/11/26 02:05:34;;;;;;;38.63;24.60;;;;;;;1.87;71.40;101080.16;2089978;28;20168;-65
2021/11/26 02:06:35;;;;;;;37.40;24.00;;;;;;;2.90;71.47;101245.69;2089746;28;20187;-66
2021/11/26 02:07:35;;;;;;;35.20;24.00;;;;;;;2.92;71.07;101254.34;2089888;28;20168;-66
2021/11/26 02:08:36;;;;;;;38.63;25.53;;;;;;;2.92;70.98;101254.34;2089641;28;20238;-65
2021/11/26 02:09:37;;;;;;;37.13;24.73;;;;;;;2.91;71.11;101253.53;2089970;28;20168;-66
2021/11/26 02:10:39;;;;;;;32.63;23.70;;;;;;;2.89;71.53;101253.13;2090114;28;20176;-66
2021/11/26 02:11:40;;;;;;;35.10;25.52;;;;;;;2.28;71.33;101159.41;2089910;28;20180;-66
2021/11/26 02:12:40;;;;;;;35.83;24.20;;;;;;;2.92;71.58;101243.41;2090078;28;20180;-66
2021/11/26 02:13:41;;;;;;;33.03;24.50;;;;;;;2.92;71.70;101244.16;2089987;28;20642;-66
2021/11/26 02:14:41;;;;;;;36.53;23.47;;;;;;;2.91;71.98;101237.13;2090030;28;20674;-66
2021/11/26 02:15:44;;;;;;;35.70;24.27;;;;;;;2.93;72.08;101240.25;2089950;28;20200;-66
2021/11/26 02:16:47;;;;;;;35.83;24.27;;;;;;;2.94;71.50;101236.41;2089370;28;20177;-66
2021/11/26 02:17:50;;;;;;;32.38;23.55;;;;;;;2.94;71.25;101243.81;2090027;28;20652;-66
2021/11/26 02:18:51;;;;;;;33.08;23.38;;;;;;;2.93;71.75;101243.00;2089375;28;20674;-66
2021/11/26 02:19:53;;;;;;;31.47;23.33;;;;;;;2.19;71.56;101126.03;2090059;28;20622;-66
2021/11/26 02:20:54;;;;;;;31.75;23.25;;;;;;;2.98;71.72;101239.97;2089934;28;20176;-66
2021/11/26 02:21:55;;;;;;;34.58;23.50;;;;;;;2.99;71.94;101241.53;2089791;28;20271;-66
2021/11/26 02:22:57;;;;;;;34.35;24.30;;;;;;;3.01;71.65;101238.44;2089866;28;20184;-66
2021/11/26 02:23:57;;;;;;;30.52;23.73;;;;;;;3.04;71.91;101237.72;2090064;28;20184;-66
2021/11/26 02:24:58;;;;;;;33.93;23.63;;;;;;;3.04;71.72;101230.28;2089838;28;20551;-66
2021/11/26 02:25:59;;;;;;;32.23;22.70;;;;;;;2.88;71.98;101207.72;2089945;28;20188;-66
2021/11/26 02:26:59;;;;;;;29.07;23.23;;;;;;;2.70;72.04;101176.56;2089219;28;20162;-65
2021/11/26 02:28:02;;;;;;;30.67;22.87;;;;;;;3.08;71.86;101231.13;2089875;28;20188;-66
2021/11/26 02:29:03;;;;;;;36.30;22.88;;;;;;;3.08;70.90;101233.88;2089643;28;20731;-66
2021/11/26 02:30:19;;;;;;;35.05;24.00;;;;;;;2.79;71.17;101195.47;2090076;28;20190;-66
2021/11/26 02:31:19;;;;;;;33.88;23.70;;;;;;;3.02;71.74;101221.66;2089719;28;20614;-65
2021/11/26 02:32:20;;;;;;;31.83;24.60;;;;;;;2.99;72.01;101222.38;2089802;28;20252;-66
2021/11/26 02:33:22;;;;;;;30.73;23.45;;;;;;;2.99;71.87;101222.38;2089642;28;20184;-65
2021/11/26 02:34:23;;;;;;;32.35;23.10;;;;;;;3.01;71.00;101217.34;2089972;28;20267;-66
2021/11/26 02:35:25;;;;;;;31.13;22.43;;;;;;;2.50;70.64;101134.00;2089643;28;20164;-65
2021/11/26 02:36:26;;;;;;;31.05;21.58;;;;;;;3.01;70.62;101214.59;2089442;28;20177;-66
2021/11/26 02:37:27;;;;;;;26.53;20.90;;;;;;;3.02;69.90;101218.09;2089575;28;20634;-66
2021/11/26 02:38:28;;;;;;;29.23;20.90;;;;;;;3.02;69.53;101207.16;2089479;28;20184;-65
2021/11/26 02:39:29;;;;;;;26.95;21.08;;;;;;;3.02;69.03;101210.69;2089618;28;20248;-65
2021/11/26 02:40:31;;;;;;;27.97;21.80;;;;;;;2.99;68.84;101214.16;2086397;28;20656;-65
2021/11/26 02:41:32;;;;;;;27.20;20.25;;;;;;;2.71;69.04;101175.38;2081393;28;20182;-65
2021/11/26 02:42:36;;;;;;;30.93;22.33;;;;;;;2.96;68.77;101219.59;2081547;28;20169;-65
2021/11/26 02:43:37;;;;;;;30.08;20.88;;;;;;;2.92;68.83;101214.06;2081313;28;20302;-65
2021/11/26 02:44:38;;;;;;;29.03;21.87;;;;;;;2.93;70.12;101206.66;2081049;28;20740;-65
2021/11/26 02:45:40;;;;;;;30.20;22.67;;;;;;;2.83;71.40;101208.03;2080792;28;20157;-65
2021/11/26 02:46:41;;;;;;;28.48;21.98;;;;;;;2.80;71.64;101216.19;2081059;28;20181;-65
2021/11/26 02:47:41;;;;;;;27.90;20.40;;;;;;;2.76;71.44;101204.38;2081360;28;20211;-65
2021/11/26 02:48:42;;;;;;;26.13;19.77;;;;;;;2.00;71.79;101100.69;2081223;28;20216;-66
2021/11/26 02:49:42;;;;;;;26.03;20.27;;;;;;;2.64;71.61;101194.44;2081297;28;20177;-66
2021/11/26 02:50:44;;;;;;;25.20;19.60;;;;;;;2.57;72.19;101193.53;2081632;28;20184;-66
2021/11/26 02:51:45;;;;;;;26.20;20.50;;;;;;;2.13;72.18;101151.31;2084885;28;20202;-65
2021/11/26 02:52:46;;;;;;;28.63;21.07;;;;;;;1.70;72.40;101069.69;2089147;28;20176;-66
2021/11/26 02:53:47;;;;;;;26.38;20.17;;;;;;;2.52;72.92;101204.78;2089560;28;20202;-65
2021/11/26 02:54:51;;;;;;;27.03;20.63;;;;;;;2.48;72.37;101210.19;2089796;28;20654;-66
2021/11/26 02:55:51;;;;;;;26.02;19.85;;;;;;;2.46;72.42;101204.25;2089500;28;20204;-66
2021/11/26 02:56:52;;;;;;;27.30;19.70;;;;;;;2.44;72.71;101198.38;2089118;28;20207;-66
2021/11/26 02:57:53;;;;;;;27.37;20.33;;;;;;;2.37;72.65;101190.03;2089613;28;20184;-66
2021/11/26 02:58:55;;;;;;;27.73;21.47;;;;;;;2.00;73.04;101139.75;2089277;28;20180;-65
2021/11/26 02:59:56;;;;;;;29.48;21.30;;;;;;;2.33;73.43;101175.53;2089656;28;20797;-66
2021/11/26 03:00:59;;;;;;;24.70;19.53;;;;;;;2.31;72.88;101177.03;2089605;28;20255;-66
2021/11/26 03:02:01;;;;;;;28.10;20.10;;;;;;;2.32;73.52;101164.94;2089620;28;20196;-65
2021/11/26 03:03:02;;;;;;;28.60;21.42;;;;;;;2.29;73.34;101165.66;2089215;28;20176;-66
2021/11/26 03:04:02;;;;;;;26.03;19.77;;;;;;;2.27;73.47;101166.00;2089482;28;20189;-66
2021/11/26 03:05:04;;;;;;;29.77;20.93;;;;;;;2.24;73.81;101161.28;2089067;28;20211;-66
2021/11/26 03:06:06;;;;;;;26.58;20.52;;;;;;;2.24;73.28;101160.47;2089818;28;20161;-66
2021/11/26 03:07:08;;;;;;;28.35;20.23;;;;;;;2.26;73.78;101161.69;2088894;28;20457;-66
2021/11/26 03:08:10;;;;;;;29.70;21.08;;;;;;;2.23;73.83;101156.19;2089444;28;20642;-66
2021/11/26 03:09:10;;;;;;;26.67;20.88;;;;;;;2.23;73.90;101156.19;2089364;28;20246;-65
2021/11/26 03:10:19;;;;;;;27.77;20.20;;;;;;;2.23;73.87;101147.97;2089741;28;20173;-66
2021/11/26 03:11:19;;;;;;;29.92;20.20;;;;;;;2.23;74.26;101154.25;2089622;28;20175;-66
2021/11/26 03:12:20;;;;;;;29.90;19.67;;;;;;;2.20;73.92;101144.03;2089634;28;20188;-65
2021/11/26 03:13:21;;;;;;;29.10;20.17;;;;;;;2.27;73.71;101146.88;2089275;28;20181;-66
2021/11/26 03:14:21;;;;;;;27.83;20.73;;;;;;;1.76;73.63;101062.78;2089759;28;20203;-65
2021/11/26 03:15:22;;;;;;;27.60;20.00;;;;;;;2.34;73.04;101151.69;2089279;28;20198;-66
2021/11/26 03:16:23;;;;;;;28.48;20.92;;;;;;;2.37;73.55;101151.75;2089144;28;20641;-66
2021/11/26 03:17:24;;;;;;;26.80;20.00;;;;;;;2.38;72.97;101161.56;2089514;28;20583;-66
2021/11/26 03:18:27;;;;;;;28.08;20.95;;;;;;;2.35;73.31;101156.00;2089161;28;20177;-66
2021/11/26 03:19:28;;;;;;;27.85;19.55;;;;;;;2.31;73.28;101157.91;2089373;28;20556;-66
2021/11/26 03:20:29;;;;;;;27.93;21.33;;;;;;;2.31;73.39;101150.47;2089707;28;20195;-66
2021/11/26 03:21:30;;;;;;;26.90;20.33;;;;;;;2.28;73.41;101144.94;2089333;28;20259;-65
2021/11/26 03:22:30;;;;;;;32.97;23.07;;;;;;;2.36;73.52;101152.13;2089509;28;20630;-66
2021/11/26 03:23:31;;;;;;;26.93;20.73;;;;;;;2.00;73.25;101081.56;2089338;28;20645;-66
2021/11/26 03:24:31;;;;;;;26.73;21.07;;;;;;;2.40;73.03;101147.47;2089667;28;20211;-66
2021/11/26 03:25:32;;;;;;;29.70;21.93;;;;;;;2.35;73.53;101145.06;2089244;28;20164;-66
2021/11/26 03:26:33;;;;;;;29.87;21.50;;;;;;;2.09;73.52;101125.84;2089068;28;20200;-66
2021/11/26 03:27:33;;;;;;;31.03;22.50;;;;;;;2.28;73.64;101132.06;2089345;28;20157;-66
2021/11/26 03:28:34;;;;;;;27.63;21.97;;;;;;;2.30;73.53;101128.94;2089010;28;20682;-66
2021/11/26 03:29:34;;;;;;;30.23;21.83;;;;;;;2.15;73.17;101110.72;2089221;28;20180;-66
2021/11/26 03:30:35;;;;;;;27.40;20.13;;;;;;;2.30;72.87;101127.00;2089614;28;20187;-65
2021/11/26 03:31:35;;;;;;;27.07;20.17;;;;;;;2.30;72.91;101127.00;2089349;28;20177;-66
2021/11/26 03:32:36;;;;;;;29.63;21.57;;;;;;;2.31;73.41;101128.59;2089661;28;20314;-66
2021/11/26 03:33:37;;;;;;;28.37;21.47;;;;;;;2.34;73.05;101124.34;2089055;28;20259;-65
2021/11/26 03:34:37;;;;;;;29.50;23.27;;;;;;;1.55;73.22;101000.31;2089494;28;20176;-66
2021/11/26 03:35:38;;;;;;;31.27;22.83;;;;;;;2.36;73.33;101138.44;2089198;28;20620;-66
2021/11/26 03:36:39;;;;;;;29.83;22.20;;;;;;;2.38;73.14;101120.53;2088873;28;20230;-65
2021/11/26 03:37:41;;;;;;;29.47;21.60;;;;;;;2.41;73.44;101125.25;2089117;28;20403;-66
2021/11/26 03:38:41;;;;;;;29.95;21.48;;;;;;;2.45;72.88;101123.38;2088925;28;20201;-65
2021/11/26 03:39:42;;;;;;;30.57;23.40;;;;;;;2.48;73.31;101128.13;2089176;28;20161;-66
2021/11/26 03:40:43;;;;;;;29.87;21.27;;;;;;;2.51;72.57;101124.63;2084168;28;20188;-66
2021/11/26 03:41:43;;;;;;;27.58;20.92;;;;;;;2.55;72.83;101127.41;2080941;28;20264;-65
2021/11/26 03:42:45;;;;;;;28.47;21.67;;;;;;;2.48;72.73;101116.38;2080994;28;20185;-65
2021/11/26 03:43:46;;;;;;;28.83;21.13;;;;;;;2.58;72.14;101129.44;2080714;28;20215;-66
2021/11/26 03:44:46;;;;;;;31.20;22.23;;;;;;;2.59;72.28;101134.53;2081282;28;20173;-66
2021/11/26 03:45:47;;;;;;;31.50;21.60;;;;;;;2.60;72.20;101130.66;2081057;28;20545;-66
2021/11/26 03:46:47;;;;;;;33.70;22.43;;;;;;;2.62;72.14;101128.31;2080586;28;20178;-66
2021/11/26 03:47:49;;;;;;;33.07;22.60;;;;;;;2.59;72.36;101114.59;2081041;28;20190;-66
2021/11/26 03:48:49;;;;;;;32.90;22.02;;;;;;;2.66;72.08;101120.16;2080758;28;20458;-66
2021/11/26 03:49:50;;;;;;;32.17;22.20;;;;;;;2.66;71.95;101129.19;2080886;28;20165;-66
2021/11/26 03:50:51;;;;;;;34.80;22.63;;;;;;;1.75;71.66;100987.41;2081086;28;20219;-66
2021/11/26 03:51:52;;;;;;;33.70;21.77;;;;;;;2.72;71.68;101127.72;2086033;28;20646;-65
2021/11/26 03:52:52;;;;;;;43.63;22.80;;;;;;;2.75;70.82;101124.25;2089399;28;20365;-66
2021/11/26 03:53:52;;;;;;;32.30;19.93;;;;;;;2.75;70.91;101121.50;2088996;28;20176;-66
2021/11/26 03:54:53;;;;;;;28.30;21.13;;;;;;;2.32;70.87;101075.47;2089255;28;20185;-66
2021/11/26 03:55:54;;;;;;;28.10;21.57;;;;;;;2.66;71.34;101114.69;2089049;28;20192;-66
2021/11/26 03:56:54;;;;;;;28.07;22.33;;;;;;;2.60;72.03;101110.69;2088634;28;20223;-66
2021/11/26 03:57:56;;;;;;;29.20;22.43;;;;;;;2.57;71.67;101109.47;2089194;28;20180;-66
2021/11/26 03:58:57;;;;;;;29.75;23.17;;;;;;;2.45;72.16;101095.22;2088495;28;20184;-66
2021/11/26 03:59:58;;;;;;;29.17;22.13;;;;;;;2.50;72.01;101114.03;2089257;28;20181;-66
2021/11/26 04:00:58;;;;;;;30.00;21.85;;;;;;;2.01;71.91;101031.97;2089075;28;20202;-66
2021/11/26 04:01:59;;;;;;;28.47;21.37;;;;;;;2.51;72.08;101105.47;2089264;28;20702;-65
2021/11/26 04:03:00;;;;;;;28.13;21.40;;;;;;;2.49;71.61;101101.53;2089111;28;20188;-66
2021/11/26 04:04:01;;;;;;;29.80;21.60;;;;;;;2.44;72.22;101097.16;2088837;28;20180;-67
2021/11/26 04:05:02;;;;;;;28.00;21.23;;;;;;;2.33;71.87;101084.47;2088974;28;20484;-65
2021/11/26 04:06:03;;;;;;;27.60;21.30;;;;;;;2.35;72.36;101088.41;2088355;28;20176;-66
2021/11/26 04:07:03;;;;;;;28.67;21.27;;;;;;;2.40;72.22;101093.59;2087905;28;20180;-66
2021/11/26 04:08:04;;;;;;;31.87;22.70;;;;;;;2.24;72.61;101073.78;2089186;28;20202;-66
2021/11/26 04:09:05;;;;;;;28.87;21.73;;;;;;;2.31;72.33;101084.06;2088488;28;20617;-66
2021/11/26 04:10:08;;;;;;;28.27;21.97;;;;;;;2.29;72.93;101087.16;2089133;28;20200;-65
2021/11/26 04:11:08;;;;;;;27.48;21.75;;;;;;;2.28;72.51;101079.31;2088878;28;20183;-66
2021/11/26 04:12:09;;;;;;;30.97;22.53;;;;;;;2.27;72.63;101083.19;2089261;28;20165;-66
2021/11/26 04:13:10;;;;;;;29.92;22.45;;;;;;;2.25;72.83;101083.56;2088895;28;20190;-66
2021/11/26 04:14:11;;;;;;;30.85;22.33;;;;;;;2.20;73.25;101072.13;2089074;28;20168;-65
2021/11/26 04:15:14;;;;;;;28.33;22.30;;;;;;;2.05;72.60;101045.72;2088903;28;20262;-65
2021/11/26 04:16:15;;;;;;;28.45;21.25;;;;;;;2.24;73.04;101065.56;2088480;28;20646;-66
2021/11/26 04:17:15;;;;;;;27.77;21.40;;;;;;;2.27;73.04;101064.06;2088383;28;20552;-65
2021/11/26 04:18:16;;;;;;;30.67;20.87;;;;;;;2.30;72.88;101063.31;2089249;28;20173;-67
2021/11/26 04:19:16;;;;;;;34.50;22.53;;;;;;;2.34;72.91;101067.69;2088463;28;20611;-66
2021/11/26 04:20:18;;;;;;;30.90;21.37;;;;;;;2.38;72.42;101073.22;2089039;28;20195;-66
2021/11/26 04:21:19;;;;;;;28.83;22.75;;;;;;;2.44;72.41;101074.50;2088282;28;20191;-65
2021/11/26 04:22:20;;;;;;;29.63;21.93;;;;;;;2.43;72.40;101070.97;2088450;28;20263;-66
2021/11/26 04:23:20;;;;;;;29.50;22.77;;;;;;;2.37;72.18;101064.22;2088852;28;20188;-65
2021/11/26 04:24:21;;;;;;;29.53;22.20;;;;;;;2.26;73.11;101057.00;2088946;28;20246;-66
2021/11/26 04:25:21;;;;;;;27.63;21.40;;;;;;;1.70;72.84;100968.59;2088985;28;20199;-66
2021/11/26 04:26:22;;;;;;;29.43;22.70;;;;;;;2.26;72.68;101073.41;2088543;28;20301;-65
2021/11/26 04:27:23;;;;;;;29.23;21.70;;;;;;;2.31;73.00;101064.91;2088896;28;20181;-66
2021/11/26 04:28:24;;;;;;;28.08;21.92;;;;;;;2.33;73.00;101057.13;2088550;28;20176;-65
2021/11/26 04:29:24;;;;;;;27.47;21.47;;;;;;;2.33;72.77;101051.66;2089120;28;20180;-65
2021/11/26 04:30:27;;;;;;;32.00;23.30;;;;;;;2.25;72.62;101053.47;2089100;28;20187;-66
2021/11/26 04:31:28;;;;;;;27.90;22.27;;;;;;;2.30;73.27;101055.91;2088735;28;20184;-65
2021/11/26 04:32:29;;;;;;;32.90;24.03;;;;;;;2.35;72.84;101057.53;2089070;28;20161;-66
2021/11/26 04:33:32;;;;;;;35.33;23.90;;;;;;;2.39;72.70;101056.44;2088852;28;20553;-65
2021/11/26 04:34:33;;;;;;;33.55;23.83;;;;;;;2.38;73.09;101043.13;2088664;28;20161;-66
2021/11/26 04:35:34;;;;;;;33.23;24.50;;;;;;;2.30;73.02;101049.63;2088733;28;20650;-66
2021/11/26 04:36:34;;;;;;;29.23;22.00;;;;;;;2.28;72.94;101039.09;2087686;28;20200;-65
2021/11/26 04:37:35;;;;;;;29.73;22.53;;;;;;;2.33;72.47;101040.72;2088122;28;20184;-66
2021/11/26 04:38:36;;;;;;;28.90;22.05;;;;;;;2.36;72.26;101035.28;2088405;28;20172;-66
2021/11/26 04:39:36;;;;;;;34.67;22.90;;;;;;;2.33;72.04;101021.56;2088791;28;20180;-66
2021/11/26 04:40:37;;;;;;;42.33;27.57;;;;;;;2.43;72.73;101037.34;2084357;28;20169;-66
2021/11/26 04:41:38;;;;;;;40.27;28.23;;;;;;;2.46;72.65;101026.47;2079920;28;20177;-65
2021/11/26 04:42:41;;;;;;;39.80;27.47;;;;;;;2.39;72.45;101031.03;2080252;28;20200;-66